sensor_id;sensor_type;location;lat;lon;timestamp;pressure;altitude;pressure_sealevel;temperature;humidity
63556;BME280;49700;48.072;7.800;2023-08-07T00:01:44;99627.34;;;15.86;nan
63556;BME280;49700;48.072;7.800;2023-08-07T00:04:09;99634.44;;;15.85;nan
63556;BME280;49700;48.072;7.800;2023-08-07T00:06:35;99632.03;;;15.82;nan
63556;BME280;49700;48.072;7.800;2023-08-07T00:09:01;99629.78;;;15.78;nan
63556;BME280;49700;48.072;7.800;2023-08-07T00:11:26;99631.00;;;15.74;nan
63556;BME280;49700;48.072;7.800;2023-08-07T00:13:53;99629.44;;;15.71;nan
63556;BME280;49700;48.072;7.800;2023-08-07T00:16:22;99634.06;;;15.69;nan
63556;BME280;49700;48.072;7.800;2023-08-07T00:18:48;99634.16;;;15.67;nan
63556;BME280;49700;48.072;7.800;2023-08-07T00:21:13;99636.06;;;15.65;nan
63556;BME280;49700;48.072;7.800;2023-08-07T00:23:39;99632.59;;;15.65;nan
63556;BME280;49700;48.072;7.800;2023-08-07T00:26:04;99631.88;;;15.63;nan
63556;BME280;49700;48.072;7.800;2023-08-07T00:28:30;99624.19;;;15.60;nan
63556;BME280;49700;48.072;7.800;2023-08-07T00:30:56;99628.66;;;15.59;nan
63556;BME280;49700;48.072;7.800;2023-08-07T00:33:21;99624.34;;;15.58;nan
63556;BME280;49700;48.072;7.800;2023-08-07T00:35:48;99630.47;;;15.59;nan
63556;BME280;49700;48.072;7.800;2023-08-07T00:38:13;99624.34;;;15.58;nan
63556;BME280;49700;48.072;7.800;2023-08-07T00:40:39;99618.34;;;15.56;nan
63556;BME280;49700;48.072;7.800;2023-08-07T00:43:05;99625.56;;;15.54;nan
63556;BME280;49700;48.072;7.800;2023-08-07T00:45:38;99623.63;;;15.56;nan
63556;BME280;49700;48.072;7.800;2023-08-07T00:48:04;99624.47;;;15.57;nan
63556;BME280;49700;48.072;7.800;2023-08-07T00:50:30;99624.34;;;15.58;nan
63556;BME280;49700;48.072;7.800;2023-08-07T00:52:56;99630.59;;;15.57;nan
63556;BME280;49700;48.072;7.800;2023-08-07T00:55:22;99629.88;;;15.55;nan
63556;BME280;49700;48.072;7.800;2023-08-07T00:57:47;99617.72;;;15.53;nan
63556;BME280;49700;48.072;7.800;2023-08-07T01:00:14;99622.19;;;15.52;nan
63556;BME280;49700;48.072;7.800;2023-08-07T01:02:42;99621.50;;;15.50;nan
63556;BME280;49700;48.072;7.800;2023-08-07T01:05:07;99632.22;;;15.48;nan
63556;BME280;49700;48.072;7.800;2023-08-07T01:07:32;99628.59;;;15.49;nan
63556;BME280;49700;48.072;7.800;2023-08-07T01:09:58;99625.81;;;15.51;nan
63556;BME280;49700;48.072;7.800;2023-08-07T01:12:35;99629.31;;;15.52;nan
63556;BME280;49700;48.072;7.800;2023-08-07T01:15:13;99628.31;;;15.53;nan
63556;BME280;49700;48.072;7.800;2023-08-07T01:17:42;99633.88;;;15.49;nan
63556;BME280;49700;48.072;7.800;2023-08-07T01:20:09;99644.47;;;15.49;nan
63556;BME280;49700;48.072;7.800;2023-08-07T01:22:36;99637.38;;;15.50;nan
63556;BME280;49700;48.072;7.800;2023-08-07T01:25:02;99635.84;;;15.47;nan
63556;BME280;49700;48.072;7.800;2023-08-07T01:27:46;99636.78;;;15.46;nan
63556;BME280;49700;48.072;7.800;2023-08-07T01:30:37;99641.25;;;15.46;nan
63556;BME280;49700;48.072;7.800;2023-08-07T01:35:39;99641.25;;;15.46;nan
63556;BME280;49700;48.072;7.800;2023-08-07T01:38:07;99645.56;;;15.47;nan
63556;BME280;49700;48.072;7.800;2023-08-07T01:40:33;99646.41;;;15.47;nan
63556;BME280;49700;48.072;7.800;2023-08-07T01:43:00;99650.84;;;15.47;nan
63556;BME280;49700;48.072;7.800;2023-08-07T01:45:28;99647.53;;;15.45;nan
63556;BME280;49700;48.072;7.800;2023-08-07T01:47:54;99651.13;;;15.44;nan
63556;BME280;49700;48.072;7.800;2023-08-07T01:50:20;99658.09;;;15.45;nan
63556;BME280;49700;48.072;7.800;2023-08-07T01:52:46;99650.16;;;15.45;nan
63556;BME280;49700;48.072;7.800;2023-08-07T01:55:13;99650.16;;;15.45;nan
63556;BME280;49700;48.072;7.800;2023-08-07T01:57:39;99658.78;;;15.47;nan
63556;BME280;49700;48.072;7.800;2023-08-07T02:00:05;99653.66;;;15.45;nan
63556;BME280;49700;48.072;7.800;2023-08-07T02:02:40;99652.19;;;15.41;nan
63556;BME280;49700;48.072;7.800;2023-08-07T02:05:06;99649.97;;;15.37;nan
63556;BME280;49700;48.072;7.800;2023-08-07T02:07:31;99657.44;;;15.32;nan
63556;BME280;49700;48.072;7.800;2023-08-07T02:09:58;99652.31;;;15.19;nan
63556;BME280;49700;48.072;7.800;2023-08-07T02:12:24;99653.44;;;15.05;nan
63556;BME280;49700;48.072;7.800;2023-08-07T02:14:51;99655.97;;;14.95;nan
63556;BME280;49700;48.072;7.800;2023-08-07T02:17:17;99645.06;;;14.89;nan
63556;BME280;49700;48.072;7.800;2023-08-07T02:19:42;99640.88;;;14.86;nan
63556;BME280;49700;48.072;7.800;2023-08-07T02:22:08;99651.56;;;14.85;nan
63556;BME280;49700;48.072;7.800;2023-08-07T02:24:33;99653.63;;;14.81;nan
63556;BME280;49700;48.072;7.800;2023-08-07T02:26:59;99660.00;;;14.78;nan
63556;BME280;49700;48.072;7.800;2023-08-07T02:29:24;99657.47;;;14.77;nan
63556;BME280;49700;48.072;7.800;2023-08-07T02:31:50;99659.41;;;14.75;nan
63556;BME280;49700;48.072;7.800;2023-08-07T02:34:15;99664.69;;;14.75;nan
63556;BME280;49700;48.072;7.800;2023-08-07T02:36:41;99660.81;;;14.79;nan
63556;BME280;49700;48.072;7.800;2023-08-07T02:39:06;99654.44;;;14.81;nan
63556;BME280;49700;48.072;7.800;2023-08-07T02:41:32;99651.69;;;14.83;nan
63556;BME280;49700;48.072;7.800;2023-08-07T02:44:00;99657.81;;;14.83;nan
63556;BME280;49700;48.072;7.800;2023-08-07T02:46:25;99662.28;;;14.83;nan
63556;BME280;49700;48.072;7.800;2023-08-07T02:48:50;99660.56;;;14.82;nan
63556;BME280;49700;48.072;7.800;2023-08-07T02:51:16;99658.81;;;14.82;nan
63556;BME280;49700;48.072;7.800;2023-08-07T02:53:41;99655.19;;;14.83;nan
63556;BME280;49700;48.072;7.800;2023-08-07T02:56:07;99655.03;;;14.85;nan
63556;BME280;49700;48.072;7.800;2023-08-07T02:58:32;99657.81;;;14.83;nan
63556;BME280;49700;48.072;7.800;2023-08-07T03:01:03;99663.22;;;14.82;nan
63556;BME280;49700;48.072;7.800;2023-08-07T03:03:30;99661.66;;;14.79;nan
63556;BME280;49700;48.072;7.800;2023-08-07T03:05:55;99664.31;;;14.79;nan
63556;BME280;49700;48.072;7.800;2023-08-07T03:08:20;99659.88;;;14.80;nan
63556;BME280;49700;48.072;7.800;2023-08-07T03:10:51;99658.06;;;14.80;nan
63556;BME280;49700;48.072;7.800;2023-08-07T03:13:17;99656.16;;;14.82;nan
63556;BME280;49700;48.072;7.800;2023-08-07T03:15:43;99656.16;;;14.82;nan
63556;BME280;49700;48.072;7.800;2023-08-07T03:18:08;99665.03;;;14.81;nan
63556;BME280;49700;48.072;7.800;2023-08-07T03:20:36;99668.66;;;14.80;nan
63556;BME280;49700;48.072;7.800;2023-08-07T03:23:01;99661.56;;;14.81;nan
63556;BME280;49700;48.072;7.800;2023-08-07T03:25:27;99659.63;;;14.83;nan
63556;BME280;49700;48.072;7.800;2023-08-07T03:27:53;99655.91;;;14.86;nan
63556;BME280;49700;48.072;7.800;2023-08-07T03:30:18;99657.47;;;14.88;nan
63556;BME280;49700;48.072;7.800;2023-08-07T03:32:44;99648.56;;;14.89;nan
63556;BME280;49700;48.072;7.800;2023-08-07T03:35:11;99650.00;;;14.93;nan
63556;BME280;49700;48.072;7.800;2023-08-07T03:37:37;99650.69;;;14.95;nan
63556;BME280;49700;48.072;7.800;2023-08-07T03:40:02;99649.59;;;14.98;nan
63556;BME280;49700;48.072;7.800;2023-08-07T03:42:28;99651.41;;;14.97;nan
63556;BME280;49700;48.072;7.800;2023-08-07T03:44:54;99643.59;;;14.96;nan
63556;BME280;49700;48.072;7.800;2023-08-07T03:47:19;99639.03;;;14.98;nan
63556;BME280;49700;48.072;7.800;2023-08-07T03:49:45;99640.72;;;14.99;nan
63556;BME280;49700;48.072;7.800;2023-08-07T03:52:10;99644.06;;;15.01;nan
63556;BME280;49700;48.072;7.800;2023-08-07T03:54:36;99644.94;;;15.01;nan
63556;BME280;49700;48.072;7.800;2023-08-07T03:57:01;99643.81;;;15.04;nan
63556;BME280;49700;48.072;7.800;2023-08-07T03:59:27;99646.59;;;15.02;nan
63556;BME280;49700;48.072;7.800;2023-08-07T04:01:52;99641.56;;;14.99;nan
63556;BME280;49700;48.072;7.800;2023-08-07T04:04:18;99645.88;;;15.00;nan
63556;BME280;49700;48.072;7.800;2023-08-07T04:06:43;99645.75;;;15.02;nan
63556;BME280;49700;48.072;7.800;2023-08-07T04:09:09;99652.72;;;15.03;nan
63556;BME280;49700;48.072;7.800;2023-08-07T04:11:36;99652.72;;;15.03;nan
63556;BME280;49700;48.072;7.800;2023-08-07T04:14:02;99656.34;;;15.02;nan
63556;BME280;49700;48.072;7.800;2023-08-07T04:16:30;99660.78;;;15.01;nan
63556;BME280;49700;48.072;7.800;2023-08-07T04:18:56;99655.50;;;15.01;nan
63556;BME280;49700;48.072;7.800;2023-08-07T04:21:22;99658.25;;;15.00;nan
63556;BME280;49700;48.072;7.800;2023-08-07T04:23:48;99658.25;;;15.00;nan
63556;BME280;49700;48.072;7.800;2023-08-07T04:26:14;99662.56;;;15.01;nan
63556;BME280;49700;48.072;7.800;2023-08-07T04:28:39;99662.56;;;15.01;nan
63556;BME280;49700;48.072;7.800;2023-08-07T04:31:05;99669.56;;;15.02;nan
63556;BME280;49700;48.072;7.800;2023-08-07T04:33:30;99660.66;;;15.03;nan
63556;BME280;49700;48.072;7.800;2023-08-07T04:35:56;99668.47;;;15.04;nan
63556;BME280;49700;48.072;7.800;2023-08-07T04:38:21;99666.66;;;15.05;nan
63556;BME280;49700;48.072;7.800;2023-08-07T04:40:48;99665.84;;;15.04;nan
63556;BME280;49700;48.072;7.800;2023-08-07T04:43:15;99670.50;;;15.01;nan
63556;BME280;49700;48.072;7.800;2023-08-07T04:45:41;99668.00;;;14.99;nan
63556;BME280;49700;48.072;7.800;2023-08-07T04:48:07;99676.88;;;14.98;nan
63556;BME280;49700;48.072;7.800;2023-08-07T04:50:33;99667.28;;;14.97;nan
63556;BME280;49700;48.072;7.800;2023-08-07T04:52:59;99669.09;;;14.97;nan
63556;BME280;49700;48.072;7.800;2023-08-07T04:55:25;99671.75;;;14.97;nan
63556;BME280;49700;48.072;7.800;2023-08-07T04:57:50;99679.78;;;14.95;nan
63556;BME280;49700;48.072;7.800;2023-08-07T05:00:19;99679.94;;;14.94;nan
63556;BME280;49700;48.072;7.800;2023-08-07T05:02:45;99692.53;;;14.90;nan
63556;BME280;49700;48.072;7.800;2023-08-07T05:05:10;99687.38;;;14.89;nan
63556;BME280;49700;48.072;7.800;2023-08-07T05:07:36;99690.97;;;14.88;nan
63556;BME280;49700;48.072;7.800;2023-08-07T05:10:04;99684.75;;;14.89;nan
63556;BME280;49700;48.072;7.800;2023-08-07T05:12:30;99679.44;;;14.89;nan
63556;BME280;49700;48.072;7.800;2023-08-07T05:14:55;99689.88;;;14.90;nan
63556;BME280;49700;48.072;7.800;2023-08-07T05:17:21;99690.03;;;14.89;nan
63556;BME280;49700;48.072;7.800;2023-08-07T05:19:47;99697.13;;;14.88;nan
63556;BME280;49700;48.072;7.800;2023-08-07T05:22:12;99697.13;;;14.88;nan
63556;BME280;49700;48.072;7.800;2023-08-07T05:24:38;99697.97;;;14.89;nan
63556;BME280;49700;48.072;7.800;2023-08-07T05:27:07;99701.56;;;14.88;nan
63556;BME280;49700;48.072;7.800;2023-08-07T05:29:34;99690.03;;;14.89;nan
63556;BME280;49700;48.072;7.800;2023-08-07T05:31:59;99697.81;;;14.90;nan
63556;BME280;49700;48.072;7.800;2023-08-07T05:34:25;99705.06;;;14.88;nan
63556;BME280;49700;48.072;7.800;2023-08-07T05:36:50;99699.53;;;14.91;nan
63556;BME280;49700;48.072;7.800;2023-08-07T05:39:16;99699.53;;;14.91;nan
63556;BME280;49700;48.072;7.800;2023-08-07T05:41:41;99702.16;;;14.91;nan
63556;BME280;49700;48.072;7.800;2023-08-07T05:44:07;99705.66;;;14.92;nan
63556;BME280;49700;48.072;7.800;2023-08-07T05:46:32;99701.34;;;14.91;nan
63556;BME280;49700;48.072;7.800;2023-08-07T05:48:57;99709.97;;;14.93;nan
63556;BME280;49700;48.072;7.800;2023-08-07T05:51:23;99709.97;;;14.93;nan
63556;BME280;49700;48.072;7.800;2023-08-07T05:53:48;99715.72;;;14.98;nan
63556;BME280;49700;48.072;7.800;2023-08-07T05:56:14;99720.06;;;14.99;nan
63556;BME280;49700;48.072;7.800;2023-08-07T05:58:39;99722.47;;;15.02;nan
63556;BME280;49700;48.072;7.800;2023-08-07T06:01:05;99721.50;;;15.03;nan
63556;BME280;49700;48.072;7.800;2023-08-07T06:03:31;99727.50;;;15.05;nan
63556;BME280;49700;48.072;7.800;2023-08-07T06:05:57;99730.63;;;15.10;nan
63556;BME280;49700;48.072;7.800;2023-08-07T06:08:23;99726.75;;;15.14;nan
63556;BME280;49700;48.072;7.800;2023-08-07T06:10:48;99725.31;;;15.21;nan
63556;BME280;49700;48.072;7.800;2023-08-07T06:13:14;99729.16;;;15.29;nan
63556;BME280;49700;48.072;7.800;2023-08-07T06:15:39;99737.31;;;15.37;nan
63556;BME280;49700;48.072;7.800;2023-08-07T06:18:04;99735.81;;;15.44;nan
63556;BME280;49700;48.072;7.800;2023-08-07T06:20:30;99733.28;;;15.54;nan
63556;BME280;49700;48.072;7.800;2023-08-07T06:22:55;99734.31;;;15.62;nan
63556;BME280;49700;48.072;7.800;2023-08-07T06:25:21;99738.41;;;15.66;nan
63556;BME280;49700;48.072;7.800;2023-08-07T06:27:46;99736.59;;;15.67;nan
63556;BME280;49700;48.072;7.800;2023-08-07T06:30:12;99739.13;;;15.68;nan
63556;BME280;49700;48.072;7.800;2023-08-07T06:32:39;99732.13;;;15.67;nan
63556;BME280;49700;48.072;7.800;2023-08-07T06:35:05;99732.97;;;15.68;nan
63556;BME280;49700;48.072;7.800;2023-08-07T06:37:31;99728.66;;;15.67;nan
63556;BME280;49700;48.072;7.800;2023-08-07T06:39:56;99737.53;;;15.66;nan
63556;BME280;49700;48.072;7.800;2023-08-07T06:42:22;99739.34;;;15.65;nan
63556;BME280;49700;48.072;7.800;2023-08-07T06:44:47;99743.81;;;15.65;nan
63556;BME280;49700;48.072;7.800;2023-08-07T06:47:13;99746.47;;;15.65;nan
63556;BME280;49700;48.072;7.800;2023-08-07T06:49:38;99752.72;;;15.64;nan
63556;BME280;49700;48.072;7.800;2023-08-07T06:52:04;99753.56;;;15.64;nan
63556;BME280;49700;48.072;7.800;2023-08-07T06:54:29;99758.13;;;15.62;nan
63556;BME280;49700;48.072;7.800;2023-08-07T06:59:37;99761.19;;;15.69;nan
63556;BME280;49700;48.072;7.800;2023-08-07T07:02:04;99758.97;;;15.74;nan
63556;BME280;49700;48.072;7.800;2023-08-07T07:04:29;99756.91;;;15.78;nan
63556;BME280;49700;48.072;7.800;2023-08-07T07:06:54;99757.38;;;15.83;nan
63556;BME280;49700;48.072;7.800;2023-08-07T07:09:20;99761.31;;;15.88;nan
63556;BME280;49700;48.072;7.800;2023-08-07T07:11:48;99766.94;;;15.95;nan
63556;BME280;49700;48.072;7.800;2023-08-07T07:14:13;99765.72;;;15.99;nan
63556;BME280;49700;48.072;7.800;2023-08-07T07:16:39;99767.13;;;16.03;nan
63556;BME280;49700;48.072;7.800;2023-08-07T07:19:05;99760.63;;;16.07;nan
63556;BME280;49700;48.072;7.800;2023-08-07T07:21:33;99769.28;;;16.09;nan
63556;BME280;49700;48.072;7.800;2023-08-07T07:23:59;99770.97;;;16.10;nan
63556;BME280;49700;48.072;7.800;2023-08-07T07:26:25;99777.25;;;16.09;nan
63556;BME280;49700;48.072;7.800;2023-08-07T07:28:51;99772.88;;;16.08;nan
63556;BME280;49700;48.072;7.800;2023-08-07T07:31:16;99777.09;;;16.11;nan
63556;BME280;49700;48.072;7.800;2023-08-07T07:33:42;99784.78;;;16.14;nan
63556;BME280;49700;48.072;7.800;2023-08-07T07:36:07;99786.22;;;16.18;nan
63556;BME280;49700;48.072;7.800;2023-08-07T07:38:38;99794.75;;;16.22;nan
63556;BME280;49700;48.072;7.800;2023-08-07T07:41:03;99799.31;;;16.20;nan
63556;BME280;49700;48.072;7.800;2023-08-07T07:43:29;99799.22;;;16.21;nan
63556;BME280;49700;48.072;7.800;2023-08-07T07:45:54;99794.47;;;16.25;nan
63556;BME280;49700;48.072;7.800;2023-08-07T07:48:20;99801.06;;;16.30;nan
63556;BME280;49700;48.072;7.800;2023-08-07T07:50:45;99797.06;;;16.36;nan
63556;BME280;49700;48.072;7.800;2023-08-07T07:53:11;99800.16;;;16.41;nan
63556;BME280;49700;48.072;7.800;2023-08-07T07:55:36;99802.06;;;16.50;nan
63556;BME280;49700;48.072;7.800;2023-08-07T07:58:03;99800.81;;;16.54;nan
63556;BME280;49700;48.072;7.800;2023-08-07T08:00:28;99795.84;;;16.61;nan
63556;BME280;49700;48.072;7.800;2023-08-07T08:02:54;99802.16;;;16.70;nan
63556;BME280;49700;48.072;7.800;2023-08-07T08:05:19;99807.06;;;16.74;nan
63556;BME280;49700;48.072;7.800;2023-08-07T08:07:44;99804.03;;;16.79;nan
63556;BME280;49700;48.072;7.800;2023-08-07T08:10:10;99808.50;;;16.78;nan
63556;BME280;49700;48.072;7.800;2023-08-07T08:12:36;99812.22;;;16.76;nan
63556;BME280;49700;48.072;7.800;2023-08-07T08:15:02;99819.34;;;16.75;nan
63556;BME280;49700;48.072;7.800;2023-08-07T08:17:28;99816.97;;;16.72;nan
63556;BME280;49700;48.072;7.800;2023-08-07T08:19:54;99830.59;;;16.68;nan
63556;BME280;49700;48.072;7.800;2023-08-07T08:22:19;99826.56;;;16.64;nan
63556;BME280;49700;48.072;7.800;2023-08-07T08:24:45;99830.16;;;16.63;nan
63556;BME280;49700;48.072;7.800;2023-08-07T08:27:11;99834.06;;;16.58;nan
63556;BME280;49700;48.072;7.800;2023-08-07T08:29:36;99842.97;;;16.57;nan
63556;BME280;49700;48.072;7.800;2023-08-07T08:32:01;99833.91;;;16.60;nan
63556;BME280;49700;48.072;7.800;2023-08-07T08:34:27;99838.00;;;16.64;nan
63556;BME280;49700;48.072;7.800;2023-08-07T08:36:53;99842.50;;;16.73;nan
63556;BME280;49700;48.072;7.800;2023-08-07T08:39:18;99841.16;;;16.79;nan
63556;BME280;49700;48.072;7.800;2023-08-07T08:41:46;99842.38;;;16.96;nan
63556;BME280;49700;48.072;7.800;2023-08-07T08:44:13;99837.84;;;17.17;nan
63556;BME280;49700;48.072;7.800;2023-08-07T08:46:42;99844.47;;;17.33;nan
63556;BME280;49700;48.072;7.800;2023-08-07T08:49:08;99835.94;;;17.39;nan
63556;BME280;49700;48.072;7.800;2023-08-07T08:51:36;99839.19;;;17.42;nan
63556;BME280;49700;48.072;7.800;2023-08-07T08:54:03;99840.06;;;17.53;nan
63556;BME280;49700;48.072;7.800;2023-08-07T08:56:30;99834.78;;;17.72;nan
63556;BME280;49700;48.072;7.800;2023-08-07T08:58:56;99831.19;;;18.02;nan
63556;BME280;49700;48.072;7.800;2023-08-07T09:01:21;99832.31;;;18.29;nan
63556;BME280;49700;48.072;7.800;2023-08-07T09:03:47;99821.63;;;18.48;nan
63556;BME280;49700;48.072;7.800;2023-08-07T09:06:13;99819.63;;;18.60;nan
63556;BME280;49700;48.072;7.800;2023-08-07T09:08:42;99821.97;;;18.73;nan
63556;BME280;49700;48.072;7.800;2023-08-07T09:11:08;99823.88;;;19.00;nan
63556;BME280;49700;48.072;7.800;2023-08-07T09:13:33;99821.91;;;19.30;nan
63556;BME280;49700;48.072;7.800;2023-08-07T09:16:01;99823.59;;;19.58;nan
63556;BME280;49700;48.072;7.800;2023-08-07T09:18:27;99809.78;;;19.91;nan
63556;BME280;49700;48.072;7.800;2023-08-07T09:20:52;99810.69;;;20.17;nan
63556;BME280;49700;48.072;7.800;2023-08-07T09:23:18;99794.16;;;20.40;nan
63556;BME280;49700;48.072;7.800;2023-08-07T09:25:44;99803.13;;;20.57;nan
63556;BME280;49700;48.072;7.800;2023-08-07T09:28:10;99804.19;;;20.64;nan
63556;BME280;49700;48.072;7.800;2023-08-07T09:30:36;99808.09;;;20.77;nan
63556;BME280;49700;48.072;7.800;2023-08-07T09:33:03;99808.25;;;21.10;nan
63556;BME280;49700;48.072;7.800;2023-08-07T09:35:30;99798.34;;;21.37;nan
63556;BME280;49700;48.072;7.800;2023-08-07T09:37:59;99800.06;;;21.54;nan
63556;BME280;49700;48.072;7.800;2023-08-07T09:40:25;99796.44;;;21.63;nan
63556;BME280;49700;48.072;7.800;2023-08-07T09:42:52;99806.81;;;21.75;nan
63556;BME280;49700;48.072;7.800;2023-08-07T09:47:44;99790.63;;;22.01;nan
63556;BME280;49700;48.072;7.800;2023-08-07T09:50:18;99793.13;;;22.10;nan
63556;BME280;49700;48.072;7.800;2023-08-07T09:52:49;99806.34;;;21.96;nan
63556;BME280;49700;48.072;7.800;2023-08-07T09:55:14;99814.13;;;21.56;nan
63556;BME280;49700;48.072;7.800;2023-08-07T09:57:43;99809.56;;;21.06;nan
63556;BME280;49700;48.072;7.800;2023-08-07T10:00:09;99809.34;;;20.65;nan
63556;BME280;49700;48.072;7.800;2023-08-07T10:02:38;99817.28;;;20.31;nan
63556;BME280;49700;48.072;7.800;2023-08-07T10:05:09;99818.00;;;19.97;nan
63556;BME280;49700;48.072;7.800;2023-08-07T10:07:35;99825.88;;;19.71;nan
63556;BME280;49700;48.072;7.800;2023-08-07T10:10:02;99824.16;;;19.52;nan
63556;BME280;49700;48.072;7.800;2023-08-07T10:12:28;99831.84;;;19.37;nan
63556;BME280;49700;48.072;7.800;2023-08-07T10:14:55;99830.22;;;19.27;nan
63556;BME280;49700;48.072;7.800;2023-08-07T10:17:23;99831.09;;;19.17;nan
63556;BME280;49700;48.072;7.800;2023-08-07T10:19:51;99837.84;;;19.12;nan
63556;BME280;49700;48.072;7.800;2023-08-07T10:22:18;99835.34;;;19.10;nan
63556;BME280;49700;48.072;7.800;2023-08-07T10:24:47;99839.47;;;19.22;nan
63556;BME280;49700;48.072;7.800;2023-08-07T10:27:15;99833.69;;;19.55;nan
63556;BME280;49700;48.072;7.800;2023-08-07T10:29:42;99835.41;;;19.74;nan
63556;BME280;49700;48.072;7.800;2023-08-07T10:32:10;99823.25;;;19.89;nan
63556;BME280;49700;48.072;7.800;2023-08-07T10:34:38;99835.13;;;19.95;nan
63556;BME280;49700;48.072;7.800;2023-08-07T10:37:07;99825.81;;;20.17;nan
63556;BME280;49700;48.072;7.800;2023-08-07T10:39:33;99821.66;;;20.58;nan
63556;BME280;49700;48.072;7.800;2023-08-07T10:41:58;99819.84;;;20.85;nan
63556;BME280;49700;48.072;7.800;2023-08-07T10:44:26;99822.72;;;20.99;nan
63556;BME280;49700;48.072;7.800;2023-08-07T10:46:55;99819.09;;;21.09;nan
63556;BME280;49700;48.072;7.800;2023-08-07T10:49:37;99816.63;;;21.15;nan
63556;BME280;49700;48.072;7.800;2023-08-07T10:52:07;99821.47;;;21.12;nan
63556;BME280;49700;48.072;7.800;2023-08-07T10:54:41;99829.72;;;21.00;nan
63556;BME280;49700;48.072;7.800;2023-08-07T10:57:11;99825.41;;;20.99;nan
63556;BME280;49700;48.072;7.800;2023-08-07T10:59:37;99823.88;;;20.97;nan
63556;BME280;49700;48.072;7.800;2023-08-07T11:02:07;99818.53;;;20.97;nan
63556;BME280;49700;48.072;7.800;2023-08-07T11:04:36;99821.22;;;20.97;nan
63556;BME280;49700;48.072;7.800;2023-08-07T11:07:02;99819.91;;;21.01;nan
63556;BME280;49700;48.072;7.800;2023-08-07T11:09:27;99813.59;;;21.10;nan
63556;BME280;49700;48.072;7.800;2023-08-07T11:11:53;99812.16;;;21.24;nan
63556;BME280;49700;48.072;7.800;2023-08-07T11:14:19;99817.94;;;21.46;nan
63556;BME280;49700;48.072;7.800;2023-08-07T11:16:46;99807.78;;;21.65;nan
63556;BME280;49700;48.072;7.800;2023-08-07T11:19:14;99816.66;;;21.74;nan
63556;BME280;49700;48.072;7.800;2023-08-07T11:21:40;99807.84;;;21.98;nan
63556;BME280;49700;48.072;7.800;2023-08-07T11:24:12;99804.50;;;22.29;nan
63556;BME280;49700;48.072;7.800;2023-08-07T11:26:37;99798.28;;;22.61;nan
63556;BME280;49700;48.072;7.800;2023-08-07T11:29:03;99805.56;;;22.84;nan
63556;BME280;49700;48.072;7.800;2023-08-07T11:31:28;99807.06;;;22.86;nan
63556;BME280;49700;48.072;7.800;2023-08-07T11:33:57;99806.44;;;22.76;nan
63556;BME280;49700;48.072;7.800;2023-08-07T11:36:24;99803.63;;;22.61;nan
63556;BME280;49700;48.072;7.800;2023-08-07T11:38:50;99804.00;;;22.50;nan
63556;BME280;49700;48.072;7.800;2023-08-07T11:41:17;99809.03;;;22.28;nan
63556;BME280;49700;48.072;7.800;2023-08-07T11:43:43;99812.34;;;21.98;nan
63556;BME280;49700;48.072;7.800;2023-08-07T11:46:10;99814.81;;;21.67;nan
63556;BME280;49700;48.072;7.800;2023-08-07T11:48:39;99810.75;;;21.54;nan
63556;BME280;49700;48.072;7.800;2023-08-07T11:51:05;99804.56;;;21.46;nan
63556;BME280;49700;48.072;7.800;2023-08-07T11:53:33;99814.91;;;21.40;nan
63556;BME280;49700;48.072;7.800;2023-08-07T11:56:10;99809.88;;;21.37;nan
63556;BME280;49700;48.072;7.800;2023-08-07T11:58:40;99804.53;;;21.37;nan
63556;BME280;49700;48.072;7.800;2023-08-07T12:01:10;99800.72;;;21.48;nan
63556;BME280;49700;48.072;7.800;2023-08-07T12:03:37;99798.28;;;21.71;nan
63556;BME280;49700;48.072;7.800;2023-08-07T12:06:05;99794.94;;;21.85;nan
63556;BME280;49700;48.072;7.800;2023-08-07T12:08:32;99791.94;;;21.88;nan
63556;BME280;49700;48.072;7.800;2023-08-07T12:11:01;99792.97;;;21.96;nan
63556;BME280;49700;48.072;7.800;2023-08-07T12:13:26;99789.75;;;22.00;nan
63556;BME280;49700;48.072;7.800;2023-08-07T12:15:55;99784.59;;;21.99;nan
63556;BME280;49700;48.072;7.800;2023-08-07T12:18:22;99789.75;;;21.92;nan
63556;BME280;49700;48.072;7.800;2023-08-07T12:20:51;99785.44;;;21.91;nan
63556;BME280;49700;48.072;7.800;2023-08-07T12:23:18;99786.59;;;21.97;nan
63556;BME280;49700;48.072;7.800;2023-08-07T12:25:45;99784.06;;;21.95;nan
63556;BME280;49700;48.072;7.800;2023-08-07T12:28:11;99784.75;;;21.97;nan
63556;BME280;49700;48.072;7.800;2023-08-07T12:30:37;99782.41;;;21.94;nan
63556;BME280;49700;48.072;7.800;2023-08-07T12:33:03;99786.44;;;21.90;nan
63556;BME280;49700;48.072;7.800;2023-08-07T12:35:33;99778.22;;;21.92;nan
63556;BME280;49700;48.072;7.800;2023-08-07T12:37:59;99786.09;;;21.93;nan
63556;BME280;49700;48.072;7.800;2023-08-07T12:40:25;99783.09;;;21.96;nan
63556;BME280;49700;48.072;7.800;2023-08-07T12:42:50;99789.94;;;22.07;nan
63556;BME280;49700;48.072;7.800;2023-08-07T12:45:16;99787.44;;;22.14;nan
63556;BME280;49700;48.072;7.800;2023-08-07T12:47:48;99782.28;;;22.28;nan
63556;BME280;49700;48.072;7.800;2023-08-07T12:50:13;99779.91;;;22.50;nan
63556;BME280;49700;48.072;7.800;2023-08-07T12:52:39;99777.84;;;22.77;nan
63556;BME280;49700;48.072;7.800;2023-08-07T12:55:04;99778.31;;;22.80;nan
63556;BME280;49700;48.072;7.800;2023-08-07T12:57:31;99772.47;;;22.77;nan
63556;BME280;49700;48.072;7.800;2023-08-07T12:59:57;99775.47;;;22.73;nan
63556;BME280;49700;48.072;7.800;2023-08-07T13:02:22;99775.50;;;22.65;nan
63556;BME280;49700;48.072;7.800;2023-08-07T13:04:48;99778.03;;;22.59;nan
63556;BME280;49700;48.072;7.800;2023-08-07T13:07:13;99780.38;;;22.53;nan
63556;BME280;49700;48.072;7.800;2023-08-07T13:09:39;99773.50;;;22.59;nan
63556;BME280;49700;48.072;7.800;2023-08-07T13:12:04;99771.81;;;22.74;nan
63556;BME280;49700;48.072;7.800;2023-08-07T13:14:30;99771.06;;;22.97;nan
63556;BME280;49700;48.072;7.800;2023-08-07T13:16:55;99776.72;;;23.10;nan
63556;BME280;49700;48.072;7.800;2023-08-07T13:19:21;99778.69;;;23.16;nan
63556;BME280;49700;48.072;7.800;2023-08-07T13:21:46;99779.34;;;23.18;nan
63556;BME280;49700;48.072;7.800;2023-08-07T13:24:14;99779.88;;;23.14;nan
63556;BME280;49700;48.072;7.800;2023-08-07T13:26:40;99778.75;;;23.00;nan